sensor_id;sensor_type;location;lat;lon;timestamp;pressure;altitude;pressure_sealevel;temperature
17142;BMP180;32805;53.556;9.944;2022-08-14T00:01:58;101336.00;;;23.00
17142;BMP180;32805;53.556;9.944;2022-08-14T00:04:29;101337.00;;;23.00
17142;BMP180;32805;53.556;9.944;2022-08-14T00:07:08;101339.00;;;23.00
17142;BMP180;32805;53.556;9.944;2022-08-14T00:09:39;101331.00;;;23.00
17142;BMP180;32805;53.556;9.944;2022-08-14T00:12:27;101321.00;;;23.10
17142;BMP180;32805;53.556;9.944;2022-08-14T00:15:07;101318.00;;;23.00
17142;BMP180;32805;53.556;9.944;2022-08-14T00:17:37;101313.00;;;22.90
17142;BMP180;32805;53.556;9.944;2022-08-14T00:20:21;101312.00;;;22.90
17142;BMP180;32805;53.556;9.944;2022-08-14T00:22:56;101310.00;;;22.90
17142;BMP180;32805;53.556;9.944;2022-08-14T00:25:38;101309.00;;;22.90
17142;BMP180;32805;53.556;9.944;2022-08-14T00:28:10;101306.00;;;23.00
17142;BMP180;32805;53.556;9.944;2022-08-14T00:30:44;101305.00;;;22.90
17142;BMP180;32805;53.556;9.944;2022-08-14T00:33:14;101307.00;;;22.90
17142;BMP180;32805;53.556;9.944;2022-08-14T00:35:42;101300.00;;;23.00
17142;BMP180;32805;53.556;9.944;2022-08-14T00:38:30;101291.00;;;22.80
17142;BMP180;32805;53.556;9.944;2022-08-14T00:41:01;101291.00;;;22.80
17142;BMP180;32805;53.556;9.944;2022-08-14T00:43:29;101297.00;;;22.80
17142;BMP180;32805;53.556;9.944;2022-08-14T00:46:01;101293.00;;;22.80
17142;BMP180;32805;53.556;9.944;2022-08-14T00:48:35;101290.00;;;22.80
17142;BMP180;32805;53.556;9.944;2022-08-14T00:51:06;101279.00;;;22.80
17142;BMP180;32805;53.556;9.944;2022-08-14T00:53:35;101282.00;;;22.80
17142;BMP180;32805;53.556;9.944;2022-08-14T00:56:04;101293.00;;;22.80
17142;BMP180;32805;53.556;9.944;2022-08-14T00:58:34;101287.00;;;22.70
17142;BMP180;32805;53.556;9.944;2022-08-14T01:01:11;101277.00;;;22.60
17142;BMP180;32805;53.556;9.944;2022-08-14T01:03:44;101285.00;;;22.60
17142;BMP180;32805;53.556;9.944;2022-08-14T01:06:18;101289.00;;;22.70
17142;BMP180;32805;53.556;9.944;2022-08-14T01:08:46;101283.00;;;22.60
17142;BMP180;32805;53.556;9.944;2022-08-14T01:11:24;101279.00;;;22.60
17142;BMP180;32805;53.556;9.944;2022-08-14T01:14:03;101297.00;;;22.60
17142;BMP180;32805;53.556;9.944;2022-08-14T01:16:51;101285.00;;;22.50
17142;BMP180;32805;53.556;9.944;2022-08-14T01:19:23;101293.00;;;22.50
17142;BMP180;32805;53.556;9.944;2022-08-14T01:22:10;101283.00;;;22.50
17142;BMP180;32805;53.556;9.944;2022-08-14T01:24:44;101285.00;;;22.60
17142;BMP180;32805;53.556;9.944;2022-08-14T01:27:13;101282.00;;;22.50
17142;BMP180;32805;53.556;9.944;2022-08-14T01:29:44;101283.00;;;22.50
17142;BMP180;32805;53.556;9.944;2022-08-14T01:32:29;101268.00;;;22.50
17142;BMP180;32805;53.556;9.944;2022-08-14T01:35:08;101273.00;;;22.50
17142;BMP180;32805;53.556;9.944;2022-08-14T01:37:57;101278.00;;;22.40
17142;BMP180;32805;53.556;9.944;2022-08-14T01:40:27;101270.00;;;22.40
17142;BMP180;32805;53.556;9.944;2022-08-14T01:43:08;101273.00;;;22.40
17142;BMP180;32805;53.556;9.944;2022-08-14T01:45:48;101285.00;;;22.50
17142;BMP180;32805;53.556;9.944;2022-08-14T01:48:31;101271.00;;;22.50
17142;BMP180;32805;53.556;9.944;2022-08-14T01:51:04;101279.00;;;22.50
17142;BMP180;32805;53.556;9.944;2022-08-14T01:53:49;101263.00;;;22.50
17142;BMP180;32805;53.556;9.944;2022-08-14T01:56:22;101245.00;;;22.50
17142;BMP180;32805;53.556;9.944;2022-08-14T01:59:05;101252.00;;;22.40
17142;BMP180;32805;53.556;9.944;2022-08-14T02:01:35;101254.00;;;22.40
17142;BMP180;32805;53.556;9.944;2022-08-14T02:04:08;101245.00;;;22.30
17142;BMP180;32805;53.556;9.944;2022-08-14T02:06:56;101256.00;;;22.30
17142;BMP180;32805;53.556;9.944;2022-08-14T02:09:25;101241.00;;;22.20
17142;BMP180;32805;53.556;9.944;2022-08-14T02:11:57;101247.00;;;22.20
17142;BMP180;32805;53.556;9.944;2022-08-14T02:14:28;101248.00;;;22.20
17142;BMP180;32805;53.556;9.944;2022-08-14T02:16:59;101241.00;;;22.20
17142;BMP180;32805;53.556;9.944;2022-08-14T02:19:29;101239.00;;;22.10
17142;BMP180;32805;53.556;9.944;2022-08-14T02:21:58;101240.00;;;22.00
17142;BMP180;32805;53.556;9.944;2022-08-14T02:24:30;101226.00;;;22.00
17142;BMP180;32805;53.556;9.944;2022-08-14T02:27:07;101230.00;;;21.90
17142;BMP180;32805;53.556;9.944;2022-08-14T02:29:57;101235.00;;;21.90
17142;BMP180;32805;53.556;9.944;2022-08-14T02:32:29;101226.00;;;21.90
17142;BMP180;32805;53.556;9.944;2022-08-14T02:35:05;101231.00;;;21.90
17142;BMP180;32805;53.556;9.944;2022-08-14T02:37:43;101224.00;;;22.00
17142;BMP180;32805;53.556;9.944;2022-08-14T02:40:16;101228.00;;;22.00
17142;BMP180;32805;53.556;9.944;2022-08-14T02:42:44;101226.00;;;21.90
17142;BMP180;32805;53.556;9.944;2022-08-14T02:45:23;101219.00;;;21.90
17142;BMP180;32805;53.556;9.944;2022-08-14T02:48:04;101215.00;;;22.00
17142;BMP180;32805;53.556;9.944;2022-08-14T02:50:53;101212.00;;;22.00
17142;BMP180;32805;53.556;9.944;2022-08-14T02:53:20;101202.00;;;21.90
17142;BMP180;32805;53.556;9.944;2022-08-14T02:55:49;101202.00;;;22.00
17142;BMP180;32805;53.556;9.944;2022-08-14T02:58:18;101206.00;;;22.10
17142;BMP180;32805;53.556;9.944;2022-08-14T03:00:57;101198.00;;;22.00
17142;BMP180;32805;53.556;9.944;2022-08-14T03:03:26;101190.00;;;21.90
17142;BMP180;32805;53.556;9.944;2022-08-14T03:05:57;101194.00;;;22.00
17142;BMP180;32805;53.556;9.944;2022-08-14T03:08:26;101207.00;;;21.90
17142;BMP180;32805;53.556;9.944;2022-08-14T03:10:59;101205.00;;;21.80
17142;BMP180;32805;53.556;9.944;2022-08-14T03:13:27;101217.00;;;21.80
17142;BMP180;32805;53.556;9.944;2022-08-14T03:16:01;101208.00;;;21.70
17142;BMP180;32805;53.556;9.944;2022-08-14T03:18:36;101211.00;;;21.60
17142;BMP180;32805;53.556;9.944;2022-08-14T03:21:09;101202.00;;;21.60
17142;BMP180;32805;53.556;9.944;2022-08-14T03:23:40;101203.00;;;21.70
17142;BMP180;32805;53.556;9.944;2022-08-14T03:26:12;101207.00;;;21.80
17142;BMP180;32805;53.556;9.944;2022-08-14T03:28:55;101199.00;;;21.80
17142;BMP180;32805;53.556;9.944;2022-08-14T03:31:27;101199.00;;;21.70
17142;BMP180;32805;53.556;9.944;2022-08-14T03:33:56;101203.00;;;21.70
17142;BMP180;32805;53.556;9.944;2022-08-14T03:36:26;101207.00;;;21.60
17142;BMP180;32805;53.556;9.944;2022-08-14T03:39:18;101201.00;;;21.50
17142;BMP180;32805;53.556;9.944;2022-08-14T03:41:53;101203.00;;;21.60
17142;BMP180;32805;53.556;9.944;2022-08-14T03:44:25;101204.00;;;21.50
17142;BMP180;32805;53.556;9.944;2022-08-14T03:47:13;101201.00;;;21.50
17142;BMP180;32805;53.556;9.944;2022-08-14T03:49:41;101196.00;;;21.50
17142;BMP180;32805;53.556;9.944;2022-08-14T03:52:15;101197.00;;;21.40
17142;BMP180;32805;53.556;9.944;2022-08-14T03:55:04;101190.00;;;21.40
17142;BMP180;32805;53.556;9.944;2022-08-14T03:57:34;101190.00;;;21.40
17142;BMP180;32805;53.556;9.944;2022-08-14T04:00:05;101182.00;;;21.40
17142;BMP180;32805;53.556;9.944;2022-08-14T04:02:56;101184.00;;;21.40
17142;BMP180;32805;53.556;9.944;2022-08-14T04:05:24;101184.00;;;21.30
17142;BMP180;32805;53.556;9.944;2022-08-14T04:07:52;101178.00;;;21.30
17142;BMP180;32805;53.556;9.944;2022-08-14T04:10:34;101182.00;;;21.40
17142;BMP180;32805;53.556;9.944;2022-08-14T04:13:04;101173.00;;;21.40
17142;BMP180;32805;53.556;9.944;2022-08-14T04:15:33;101164.00;;;21.40
17142;BMP180;32805;53.556;9.944;2022-08-14T04:18:21;101168.00;;;21.40
17142;BMP180;32805;53.556;9.944;2022-08-14T04:20:49;101164.00;;;21.50
17142;BMP180;32805;53.556;9.944;2022-08-14T04:23:22;101164.00;;;21.50
17142;BMP180;32805;53.556;9.944;2022-08-14T04:25:59;101159.00;;;21.60
17142;BMP180;32805;53.556;9.944;2022-08-14T04:28:29;101164.00;;;21.60
17142;BMP180;32805;53.556;9.944;2022-08-14T04:31:18;101149.00;;;21.60
17142;BMP180;32805;53.556;9.944;2022-08-14T04:34:05;101157.00;;;21.60
17142;BMP180;32805;53.556;9.944;2022-08-14T04:36:42;101158.00;;;21.70
17142;BMP180;32805;53.556;9.944;2022-08-14T04:39:25;101151.00;;;21.70
17142;BMP180;32805;53.556;9.944;2022-08-14T04:42:12;101152.00;;;21.70
17142;BMP180;32805;53.556;9.944;2022-08-14T04:44:59;101151.00;;;21.80
17142;BMP180;32805;53.556;9.944;2022-08-14T04:47:27;101148.00;;;21.80
17142;BMP180;32805;53.556;9.944;2022-08-14T04:50:19;101144.00;;;21.90
17142;BMP180;32805;53.556;9.944;2022-08-14T04:53:07;101144.00;;;21.70
17142;BMP180;32805;53.556;9.944;2022-08-14T04:55:36;101144.00;;;21.80
17142;BMP180;32805;53.556;9.944;2022-08-14T04:58:04;101135.00;;;21.90
17142;BMP180;32805;53.556;9.944;2022-08-14T05:00:49;101136.00;;;21.80
17142;BMP180;32805;53.556;9.944;2022-08-14T05:03:18;101146.00;;;21.80
17142;BMP180;32805;53.556;9.944;2022-08-14T05:05:52;101137.00;;;21.70
17142;BMP180;32805;53.556;9.944;2022-08-14T05:08:20;101139.00;;;21.70
17142;BMP180;32805;53.556;9.944;2022-08-14T05:11:09;101119.00;;;21.80
17142;BMP180;32805;53.556;9.944;2022-08-14T05:13:39;101139.00;;;21.80
17142;BMP180;32805;53.556;9.944;2022-08-14T05:16:28;101131.00;;;21.90
17142;BMP180;32805;53.556;9.944;2022-08-14T05:18:57;101129.00;;;21.90
17142;BMP180;32805;53.556;9.944;2022-08-14T05:21:45;101116.00;;;22.00
17142;BMP180;32805;53.556;9.944;2022-08-14T05:24:27;101127.00;;;22.10
17142;BMP180;32805;53.556;9.944;2022-08-14T05:26:55;101136.00;;;22.00
17142;BMP180;32805;53.556;9.944;2022-08-14T05:29:25;101124.00;;;22.10
17142;BMP180;32805;53.556;9.944;2022-08-14T05:31:55;101130.00;;;22.10
17142;BMP180;32805;53.556;9.944;2022-08-14T05:34:23;101138.00;;;22.20
17142;BMP180;32805;53.556;9.944;2022-08-14T05:36:57;101130.00;;;22.30
17142;BMP180;32805;53.556;9.944;2022-08-14T05:39:29;101140.00;;;22.30
17142;BMP180;32805;53.556;9.944;2022-08-14T05:41:57;101136.00;;;22.40
17142;BMP180;32805;53.556;9.944;2022-08-14T05:44:26;101124.00;;;22.40
17142;BMP180;32805;53.556;9.944;2022-08-14T05:46:57;101134.00;;;22.50
17142;BMP180;32805;53.556;9.944;2022-08-14T05:49:26;101128.00;;;22.50
17142;BMP180;32805;53.556;9.944;2022-08-14T05:51:59;101117.00;;;22.60
17142;BMP180;32805;53.556;9.944;2022-08-14T05:54:28;101118.00;;;22.50
17142;BMP180;32805;53.556;9.944;2022-08-14T05:57:01;101118.00;;;22.50
17142;BMP180;32805;53.556;9.944;2022-08-14T05:59:29;101113.00;;;22.50
17142;BMP180;32805;53.556;9.944;2022-08-14T06:02:04;101109.00;;;22.60
17142;BMP180;32805;53.556;9.944;2022-08-14T06:04:32;101105.00;;;22.60
17142;BMP180;32805;53.556;9.944;2022-08-14T06:07:01;101096.00;;;22.60
17142;BMP180;32805;53.556;9.944;2022-08-14T06:09:30;101105.00;;;22.70
17142;BMP180;32805;53.556;9.944;2022-08-14T06:12:06;101104.00;;;22.70
17142;BMP180;32805;53.556;9.944;2022-08-14T06:14:34;101094.00;;;22.70
17142;BMP180;32805;53.556;9.944;2022-08-14T06:17:03;101103.00;;;22.70
17142;BMP180;32805;53.556;9.944;2022-08-14T06:19:31;101089.00;;;22.70
17142;BMP180;32805;53.556;9.944;2022-08-14T06:21:59;101085.00;;;22.70
17142;BMP180;32805;53.556;9.944;2022-08-14T06:24:27;101090.00;;;22.80
17142;BMP180;32805;53.556;9.944;2022-08-14T06:27:00;101087.00;;;22.60
17142;BMP180;32805;53.556;9.944;2022-08-14T06:29:32;101075.00;;;22.60
17142;BMP180;32805;53.556;9.944;2022-08-14T06:32:01;101082.00;;;22.70
17142;BMP180;32805;53.556;9.944;2022-08-14T06:34:51;101077.00;;;22.70
17142;BMP180;32805;53.556;9.944;2022-08-14T06:37:39;101083.00;;;22.80
17142;BMP180;32805;53.556;9.944;2022-08-14T06:40:09;101074.00;;;22.80
17142;BMP180;32805;53.556;9.944;2022-08-14T06:42:54;101078.00;;;22.90
17142;BMP180;32805;53.556;9.944;2022-08-14T06:45:25;101076.00;;;23.00
17142;BMP180;32805;53.556;9.944;2022-08-14T06:47:54;101078.00;;;23.10
17142;BMP180;32805;53.556;9.944;2022-08-14T06:50:27;101084.00;;;23.10
17142;BMP180;32805;53.556;9.944;2022-08-14T06:52:59;101078.00;;;23.30
17142;BMP180;32805;53.556;9.944;2022-08-14T06:55:27;101074.00;;;23.20
17142;BMP180;32805;53.556;9.944;2022-08-14T06:57:55;101073.00;;;23.20
17142;BMP180;32805;53.556;9.944;2022-08-14T07:00:26;101076.00;;;23.10
17142;BMP180;32805;53.556;9.944;2022-08-14T07:02:56;101065.00;;;23.20
17142;BMP180;32805;53.556;9.944;2022-08-14T07:05:43;101057.00;;;23.30
17142;BMP180;32805;53.556;9.944;2022-08-14T07:08:25;101065.00;;;23.20
17142;BMP180;32805;53.556;9.944;2022-08-14T07:10:58;101059.00;;;23.30
17142;BMP180;32805;53.556;9.944;2022-08-14T07:13:27;101059.00;;;23.30
17142;BMP180;32805;53.556;9.944;2022-08-14T07:15:57;101057.00;;;23.30
17142;BMP180;32805;53.556;9.944;2022-08-14T07:18:28;101069.00;;;23.10
17142;BMP180;32805;53.556;9.944;2022-08-14T07:20:59;101067.00;;;23.00
17142;BMP180;32805;53.556;9.944;2022-08-14T07:23:27;101064.00;;;23.00
17142;BMP180;32805;53.556;9.944;2022-08-14T07:25:57;101060.00;;;23.00
17142;BMP180;32805;53.556;9.944;2022-08-14T07:28:29;101055.00;;;23.10
17142;BMP180;32805;53.556;9.944;2022-08-14T07:31:00;101057.00;;;23.30
17142;BMP180;32805;53.556;9.944;2022-08-14T07:33:33;101045.00;;;23.50
17142;BMP180;32805;53.556;9.944;2022-08-14T07:36:05;101057.00;;;23.60
17142;BMP180;32805;53.556;9.944;2022-08-14T07:38:53;101052.00;;;23.60
17142;BMP180;32805;53.556;9.944;2022-08-14T07:41:21;101062.00;;;23.80
17142;BMP180;32805;53.556;9.944;2022-08-14T07:43:49;101054.00;;;23.80
17142;BMP180;32805;53.556;9.944;2022-08-14T07:46:21;101050.00;;;23.90
17142;BMP180;32805;53.556;9.944;2022-08-14T07:48:55;101057.00;;;23.90
17142;BMP180;32805;53.556;9.944;2022-08-14T07:51:24;101053.00;;;23.90
17142;BMP180;32805;53.556;9.944;2022-08-14T07:54:00;101060.00;;;24.00
17142;BMP180;32805;53.556;9.944;2022-08-14T07:56:28;101061.00;;;24.10
17142;BMP180;32805;53.556;9.944;2022-08-14T07:59:14;101070.00;;;24.20
17142;BMP180;32805;53.556;9.944;2022-08-14T08:01:44;101059.00;;;24.20
17142;BMP180;32805;53.556;9.944;2022-08-14T08:04:21;101058.00;;;24.30
17142;BMP180;32805;53.556;9.944;2022-08-14T08:06:54;101058.00;;;24.40
17142;BMP180;32805;53.556;9.944;2022-08-14T08:09:23;101056.00;;;24.30
17142;BMP180;32805;53.556;9.944;2022-08-14T08:11:58;101059.00;;;24.30
17142;BMP180;32805;53.556;9.944;2022-08-14T08:14:31;101054.00;;;24.40
17142;BMP180;32805;53.556;9.944;2022-08-14T08:17:21;101045.00;;;24.60
17142;BMP180;32805;53.556;9.944;2022-08-14T08:19:50;101056.00;;;24.90
17142;BMP180;32805;53.556;9.944;2022-08-14T08:22:19;101051.00;;;25.10
17142;BMP180;32805;53.556;9.944;2022-08-14T08:24:52;101050.00;;;25.10
17142;BMP180;32805;53.556;9.944;2022-08-14T08:27:23;101050.00;;;25.20
17142;BMP180;32805;53.556;9.944;2022-08-14T08:30:03;101049.00;;;25.20
17142;BMP180;32805;53.556;9.944;2022-08-14T08:32:38;101052.00;;;25.10
17142;BMP180;32805;53.556;9.944;2022-08-14T08:35:09;101053.00;;;25.10
17142;BMP180;32805;53.556;9.944;2022-08-14T08:37:38;101040.00;;;25.10
17142;BMP180;32805;53.556;9.944;2022-08-14T08:40:10;101039.00;;;25.20
17142;BMP180;32805;53.556;9.944;2022-08-14T08:42:46;101045.00;;;25.30
17142;BMP180;32805;53.556;9.944;2022-08-14T08:45:20;101045.00;;;25.40
17142;BMP180;32805;53.556;9.944;2022-08-14T08:47:53;101039.00;;;25.40
17142;BMP180;32805;53.556;9.944;2022-08-14T08:50:23;101031.00;;;25.40
17142;BMP180;32805;53.556;9.944;2022-08-14T08:52:59;101034.00;;;25.40
17142;BMP180;32805;53.556;9.944;2022-08-14T08:55:30;101036.00;;;25.50
17142;BMP180;32805;53.556;9.944;2022-08-14T08:58:01;101028.00;;;25.60
17142;BMP180;32805;53.556;9.944;2022-08-14T09:00:39;101031.00;;;25.70
17142;BMP180;32805;53.556;9.944;2022-08-14T09:03:10;101035.00;;;25.90
17142;BMP180;32805;53.556;9.944;2022-08-14T09:05:51;101031.00;;;25.90
17142;BMP180;32805;53.556;9.944;2022-08-14T09:08:23;101032.00;;;26.10
17142;BMP180;32805;53.556;9.944;2022-08-14T09:11:00;101022.00;;;26.20
17142;BMP180;32805;53.556;9.944;2022-08-14T09:13:48;101023.00;;;26.20
17142;BMP180;32805;53.556;9.944;2022-08-14T09:16:19;101022.00;;;26.30
17142;BMP180;32805;53.556;9.944;2022-08-14T09:18:49;101015.00;;;26.40
17142;BMP180;32805;53.556;9.944;2022-08-14T09:21:20;101019.00;;;26.50
17142;BMP180;32805;53.556;9.944;2022-08-14T09:23:51;101018.00;;;26.60
17142;BMP180;32805;53.556;9.944;2022-08-14T09:26:41;101019.00;;;26.70
17142;BMP180;32805;53.556;9.944;2022-08-14T09:29:15;101012.00;;;26.60
17142;BMP180;32805;53.556;9.944;2022-08-14T09:31:55;100997.00;;;26.70
17142;BMP180;32805;53.556;9.944;2022-08-14T09:34:44;100992.00;;;26.70
17142;BMP180;32805;53.556;9.944;2022-08-14T09:37:41;100997.00;;;26.70
17142;BMP180;32805;53.556;9.944;2022-08-14T09:40:21;100987.00;;;26.80
17142;BMP180;32805;53.556;9.944;2022-08-14T09:43:05;100990.00;;;26.80
17142;BMP180;32805;53.556;9.944;2022-08-14T09:45:43;100989.00;;;26.80
17142;BMP180;32805;53.556;9.944;2022-08-14T09:48:20;100996.00;;;27.10
17142;BMP180;32805;53.556;9.944;2022-08-14T09:50:57;100992.00;;;27.30
17142;BMP180;32805;53.556;9.944;2022-08-14T09:53:37;100986.00;;;27.40
17142;BMP180;32805;53.556;9.944;2022-08-14T09:56:30;100978.00;;;27.50
17142;BMP180;32805;53.556;9.944;2022-08-14T09:59:09;100983.00;;;27.60
17142;BMP180;32805;53.556;9.944;2022-08-14T10:01:41;100983.00;;;27.50
17142;BMP180;32805;53.556;9.944;2022-08-14T10:04:20;100969.00;;;27.50
17142;BMP180;32805;53.556;9.944;2022-08-14T10:07:04;100968.00;;;27.40
17142;BMP180;32805;53.556;9.944;2022-08-14T10:09:45;100956.00;;;27.40
17142;BMP180;32805;53.556;9.944;2022-08-14T10:12:41;100953.00;;;27.50
17142;BMP180;32805;53.556;9.944;2022-08-14T10:15:18;100949.00;;;27.40
17142;BMP180;32805;53.556;9.944;2022-08-14T10:17:49;100958.00;;;27.40
17142;BMP180;32805;53.556;9.944;2022-08-14T10:20:31;100949.00;;;27.30
17142;BMP180;32805;53.556;9.944;2022-08-14T10:23:09;100945.00;;;27.20
17142;BMP180;32805;53.556;9.944;2022-08-14T10:25:51;100951.00;;;27.20
17142;BMP180;32805;53.556;9.944;2022-08-14T10:28:21;100938.00;;;27.00
17142;BMP180;32805;53.556;9.944;2022-08-14T10:31:15;100943.00;;;27.10
17142;BMP180;32805;53.556;9.944;2022-08-14T10:34:00;100934.00;;;27.30
17142;BMP180;32805;53.556;9.944;2022-08-14T10:36:30;100932.00;;;27.40
17142;BMP180;32805;53.556;9.944;2022-08-14T10:39:14;100923.00;;;27.50
17142;BMP180;32805;53.556;9.944;2022-08-14T10:41:44;100926.00;;;27.70
17142;BMP180;32805;53.556;9.944;2022-08-14T10:44:22;100932.00;;;27.80
17142;BMP180;32805;53.556;9.944;2022-08-14T10:46:55;100930.00;;;27.80
17142;BMP180;32805;53.556;9.944;2022-08-14T10:49:55;100924.00;;;28.00
17142;BMP180;32805;53.556;9.944;2022-08-14T10:52:26;100923.00;;;28.10
17142;BMP180;32805;53.556;9.944;2022-08-14T10:55:05;100918.00;;;28.10
17142;BMP180;32805;53.556;9.944;2022-08-14T10:57:44;100916.00;;;28.20
17142;BMP180;32805;53.556;9.944;2022-08-14T11:00:17;100916.00;;;28.30
17142;BMP180;32805;53.556;9.944;2022-08-14T11:02:57;100914.00;;;28.40
17142;BMP180;32805;53.556;9.944;2022-08-14T11:05:37;100913.00;;;28.30
17142;BMP180;32805;53.556;9.944;2022-08-14T11:08:08;100916.00;;;28.50
17142;BMP180;32805;53.556;9.944;2022-08-14T11:10:41;100914.00;;;28.60
17142;BMP180;32805;53.556;9.944;2022-08-14T11:13:16;100914.00;;;28.60
17142;BMP180;32805;53.556;9.944;2022-08-14T11:15:46;100912.00;;;28.80
17142;BMP180;32805;53.556;9.944;2022-08-14T11:18:15;100914.00;;;28.90
17142;BMP180;32805;53.556;9.944;2022-08-14T11:20:57;100913.00;;;29.00
17142;BMP180;32805;53.556;9.944;2022-08-14T11:23:28;100914.00;;;29.20
17142;BMP180;32805;53.556;9.944;2022-08-14T11:26:06;100898.00;;;29.30
17142;BMP180;32805;53.556;9.944;2022-08-14T11:28:37;100904.00;;;29.50
17142;BMP180;32805;53.556;9.944;2022-08-14T11:31:18;100905.00;;;29.50
17142;BMP180;32805;53.556;9.944;2022-08-14T11:33:48;100897.00;;;29.40
17142;BMP180;32805;53.556;9.944;2022-08-14T11:36:21;100891.00;;;29.50
17142;BMP180;32805;53.556;9.944;2022-08-14T11:39:17;100890.00;;;29.70
17142;BMP180;32805;53.556;9.944;2022-08-14T11:41:59;100885.00;;;29.70
17142;BMP180;32805;53.556;9.944;2022-08-14T11:44:48;100883.00;;;29.80
17142;BMP180;32805;53.556;9.944;2022-08-14T11:47:20;100888.00;;;29.70
17142;BMP180;32805;53.556;9.944;2022-08-14T11:49:48;100879.00;;;29.70
17142;BMP180;32805;53.556;9.944;2022-08-14T11:52:17;100870.00;;;29.80
17142;BMP180;32805;53.556;9.944;2022-08-14T11:54:56;100873.00;;;29.60
17142;BMP180;32805;53.556;9.944;2022-08-14T11:57:24;100879.00;;;29.70
17142;BMP180;32805;53.556;9.944;2022-08-14T12:00:05;100881.00;;;29.50
17142;BMP180;32805;53.556;9.944;2022-08-14T12:02:35;100878.00;;;29.60
17142;BMP180;32805;53.556;9.944;2022-08-14T12:05:31;100883.00;;;29.60
17142;BMP180;32805;53.556;9.944;2022-08-14T12:08:02;100874.00;;;29.70
17142;BMP180;32805;53.556;9.944;2022-08-14T12:10:39;100878.00;;;29.80
17142;BMP180;32805;53.556;9.944;2022-08-14T12:13:13;100873.00;;;29.70
17142;BMP180;32805;53.556;9.944;2022-08-14T12:15:46;100876.00;;;29.60
17142;BMP180;32805;53.556;9.944;2022-08-14T12:18:29;100872.00;;;29.60
17142;BMP180;32805;53.556;9.944;2022-08-14T12:21:11;100868.00;;;29.60
17142;BMP180;32805;53.556;9.944;2022-08-14T12:23:46;100858.00;;;29.80
17142;BMP180;32805;53.556;9.944;2022-08-14T12:26:17;100864.00;;;29.80
17142;BMP180;32805;53.556;9.944;2022-08-14T12:29:08;100857.00;;;29.90
17142;BMP180;32805;53.556;9.944;2022-08-14T12:31:39;100850.00;;;29.80
17142;BMP180;32805;53.556;9.944;2022-08-14T12:34:13;100837.00;;;29.90
17142;BMP180;32805;53.556;9.944;2022-08-14T12:36:48;100844.00;;;29.70
17142;BMP180;32805;53.556;9.944;2022-08-14T12:39:18;100833.00;;;29.70
17142;BMP180;32805;53.556;9.944;2022-08-14T12:41:49;100834.00;;;29.80
17142;BMP180;32805;53.556;9.944;2022-08-14T12:44:33;100825.00;;;29.90
17142;BMP180;32805;53.556;9.944;2022-08-14T12:47:03;100827.00;;;29.90
17142;BMP180;32805;53.556;9.944;2022-08-14T12:49:33;100829.00;;;29.80
17142;BMP180;32805;53.556;9.944;2022-08-14T12:52:01;100823.00;;;29.90
17142;BMP180;32805;53.556;9.944;2022-08-14T12:54:29;100813.00;;;30.00
17142;BMP180;32805;53.556;9.944;2022-08-14T12:57:06;100820.00;;;30.20
17142;BMP180;32805;53.556;9.944;2022-08-14T12:59:35;100809.00;;;30.40
17142;BMP180;32805;53.556;9.944;2022-08-14T13:02:20;100803.00;;;30.60
17142;BMP180;32805;53.556;9.944;2022-08-14T13:04:54;100798.00;;;30.70
17142;BMP180;32805;53.556;9.944;2022-08-14T13:07:25;100797.00;;;30.50
17142;BMP180;32805;53.556;9.944;2022-08-14T13:09:59;100791.00;;;30.70
17142;BMP180;32805;53.556;9.944;2022-08-14T13:12:47;100786.00;;;30.90
17142;BMP180;32805;53.556;9.944;2022-08-14T13:15:37;100777.00;;;30.80
17142;BMP180;32805;53.556;9.944;2022-08-14T13:18:07;100776.00;;;30.80
17142;BMP180;32805;53.556;9.944;2022-08-14T13:20:39;100775.00;;;30.90
17142;BMP180;32805;53.556;9.944;2022-08-14T13:23:17;100772.00;;;30.70
17142;BMP180;32805;53.556;9.944;2022-08-14T13:25:58;100761.00;;;30.60
17142;BMP180;32805;53.556;9.944;2022-08-14T13:28:26;100756.00;;;30.60
17142;BMP180;32805;53.556;9.944;2022-08-14T13:31:01;100758.00;;;30.70
17142;BMP180;32805;53.556;9.944;2022-08-14T13:33:38;100749.00;;;30.80
17142;BMP180;32805;53.556;9.944;2022-08-14T13:36:09;100738.00;;;30.80
17142;BMP180;32805;53.556;9.944;2022-08-14T13:38:58;100735.00;;;30.90
17142;BMP180;32805;53.556;9.944;2022-08-14T13:41:26;100733.00;;;30.80
17142;BMP180;32805;53.556;9.944;2022-08-14T13:44:03;100741.00;;;30.70
17142;BMP180;32805;53.556;9.944;2022-08-14T13:46:39;100725.00;;;30.60
17142;BMP180;32805;53.556;9.944;2022-08-14T13:49:11;100726.00;;;30.60
17142;BMP180;32805;53.556;9.944;2022-08-14T13:51:43;100721.00;;;30.70
17142;BMP180;32805;53.556;9.944;2022-08-14T13:54:16;100713.00;;;30.80
17142;BMP180;32805;53.556;9.944;2022-08-14T13:56:47;100708.00;;;30.80
17142;BMP180;32805;53.556;9.944;2022-08-14T13:59:15;100701.00;;;30.80
17142;BMP180;32805;53.556;9.944;2022-08-14T14:02:04;100702.00;;;31.10
17142;BMP180;32805;53.556;9.944;2022-08-14T14:04:37;100712.00;;;31.30
17142;BMP180;32805;53.556;9.944;2022-08-14T14:07:08;100704.00;;;31.30
17142;BMP180;32805;53.556;9.944;2022-08-14T14:09:40;100695.00;;;31.30
17142;BMP180;32805;53.556;9.944;2022-08-14T14:12:17;100687.00;;;31.30
17142;BMP180;32805;53.556;9.944;2022-08-14T14:15:06;100692.00;;;31.40
17142;BMP180;32805;53.556;9.944;2022-08-14T14:17:35;100687.00;;;31.60
17142;BMP180;32805;53.556;9.944;2022-08-14T14:20:06;100679.00;;;31.50
17142;BMP180;32805;53.556;9.944;2022-08-14T14:22:43;100672.00;;;31.40
17142;BMP180;32805;53.556;9.944;2022-08-14T14:25:28;100680.00;;;31.20
17142;BMP180;32805;53.556;9.944;2022-08-14T14:28:13;100668.00;;;31.10
17142;BMP180;32805;53.556;9.944;2022-08-14T14:30:51;100670.00;;;31.10
17142;BMP180;32805;53.556;9.944;2022-08-14T14:33:23;100667.00;;;31.10
17142;BMP180;32805;53.556;9.944;2022-08-14T14:36:16;100663.00;;;31.00
17142;BMP180;32805;53.556;9.944;2022-08-14T14:38:52;100655.00;;;31.00
17142;BMP180;32805;53.556;9.944;2022-08-14T14:41:22;100650.00;;;31.10
17142;BMP180;32805;53.556;9.944;2022-08-14T14:43:51;100648.00;;;31.30